Gooderham, Canada
Current Conditions -  °F | °C
As of 5:43 PM on Sunday 23 Nov 2014 (Local Time) from CYQA Reporting Station
Haze Haze  
Wind Chill:   Ceiling: 300
Heat Index:   Visibility: 1.2mi
Dew Point:   Wind: 8mph
Humidity: 100%   Direction: 110°ESE
Pressure: 29.8"   Gusts: NA
Location:  44.9°N, 78.38°W
Report Text: CYQA 232243Z AUTO 11007KT 1 1/4SM BR OVC003 05/05 A2980 RMK SLP100
Loading
Personal Weather Stations






























Interactive Weather Map New forecast layout! Learn more

10-Day Weather Forecast

Advertisements
Track Severe Weather on mobile